createdAt,value
2018-07-17T00:00:25.599Z,3.23
2018-07-17T00:02:53.713Z,3.17
2018-07-17T00:05:21.841Z,3.17
2018-07-17T00:07:50.014Z,4.37
2018-07-17T00:10:18.137Z,4.30
2018-07-17T00:12:46.312Z,3.90
2018-07-17T00:15:14.404Z,3.77
2018-07-17T00:17:42.521Z,3.63
2018-07-17T00:20:10.670Z,2.60
2018-07-17T00:22:38.790Z,4.40
2018-07-17T00:25:06.917Z,3.43
2018-07-17T00:27:35.028Z,6.60
2018-07-17T00:32:37.402Z,5.80
2018-07-17T00:35:05.529Z,4.23
2018-07-17T00:37:33.650Z,3.57
2018-07-17T00:40:02.773Z,3.63
2018-07-17T00:42:30.954Z,5.37
2018-07-17T00:44:59.076Z,3.43
2018-07-17T00:47:27.204Z,4.13
2018-07-17T00:49:55.328Z,4.80
2018-07-17T00:52:23.453Z,4.73
2018-07-17T00:54:52.504Z,4.53
2018-07-17T00:57:20.623Z,5.00
2018-07-17T00:59:48.753Z,4.73
2018-07-17T01:02:22.268Z,6.90
2018-07-17T01:04:55.648Z,4.83
2018-07-17T01:07:29.195Z,6.83
2018-07-17T01:10:02.729Z,5.47
2018-07-17T01:12:30.176Z,3.57
2018-07-17T01:15:05.223Z,4.90
2018-07-17T01:17:34.546Z,5.90
2018-07-17T01:20:02.667Z,5.03
2018-07-17T01:22:30.782Z,5.27
2018-07-17T01:24:58.973Z,5.97
2018-07-17T01:27:27.100Z,6.13
2018-07-17T01:29:55.227Z,4.90
2018-07-17T01:32:23.845Z,7.00
2018-07-17T01:34:51.728Z,5.20
2018-07-17T01:37:19.845Z,3.83
2018-07-17T01:39:50.988Z,3.73
2018-07-17T01:42:19.110Z,3.83
2018-07-17T01:44:47.239Z,6.00
2018-07-17T01:47:15.360Z,7.87
2018-07-17T01:49:43.761Z,6.80
2018-07-17T01:52:11.951Z,6.93
2018-07-17T01:54:40.517Z,4.57
2018-07-17T01:57:09.098Z,3.73
2018-07-17T01:59:37.245Z,4.53
2018-07-17T02:02:05.412Z,4.40
2018-07-17T02:04:33.526Z,9.00
2018-07-17T02:07:01.675Z,4.70
2018-07-17T02:09:30.825Z,3.67
2018-07-17T02:11:58.948Z,6.07
2018-07-17T02:14:27.077Z,4.10
2018-07-17T02:16:55.709Z,4.10
2018-07-17T02:19:23.838Z,5.63
2018-07-17T02:21:51.987Z,6.67
2018-07-17T02:24:20.117Z,5.77
2018-07-17T02:26:48.235Z,5.50
2018-07-17T02:29:16.354Z,4.97
2018-07-17T02:31:44.502Z,5.73
2018-07-17T02:34:12.666Z,7.33
2018-07-17T02:36:40.809Z,4.37
2018-07-17T02:39:09.931Z,6.37
2018-07-17T02:41:38.102Z,5.03
2018-07-17T02:44:06.268Z,4.90
2018-07-17T02:46:34.436Z,5.23
2018-07-17T02:49:02.562Z,5.60
2018-07-17T02:51:30.693Z,5.50
2018-07-17T02:53:58.834Z,5.57
2018-07-17T02:56:26.986Z,8.13
2018-07-17T02:58:55.663Z,4.90
2018-07-17T03:01:23.964Z,5.97
2018-07-17T03:03:52.113Z,7.03
2018-07-17T03:06:20.236Z,7.20
2018-07-17T03:08:48.381Z,6.70
2018-07-17T03:11:16.510Z,4.73
2018-07-17T03:13:45.162Z,5.60
2018-07-17T03:16:13.310Z,4.07
2018-07-17T03:18:41.444Z,4.77
2018-07-17T03:21:09.822Z,9.10
2018-07-17T03:23:38.485Z,6.97
2018-07-17T03:26:06.617Z,9.20
2018-07-17T03:28:34.730Z,5.83
2018-07-17T03:31:02.877Z,5.93
2018-07-17T03:33:31.046Z,3.63
2018-07-17T03:35:59.159Z,4.77
2018-07-17T03:38:27.281Z,3.53
2018-07-17T03:40:55.397Z,7.60
2018-07-17T03:43:23.521Z,5.73
2018-07-17T03:45:51.688Z,4.33
2018-07-17T03:48:19.805Z,8.73
2018-07-17T03:50:47.926Z,7.07
2018-07-17T03:53:16.070Z,5.10
2018-07-17T03:55:44.195Z,5.60
2018-07-17T03:58:12.370Z,4.47
2018-07-17T04:00:40.586Z,4.50
2018-07-17T04:03:08.706Z,4.30
2018-07-17T04:05:36.832Z,4.33
2018-07-17T04:08:05.344Z,6.50
2018-07-17T04:10:33.466Z,5.67
2018-07-17T04:13:01.607Z,6.23
2018-07-17T04:15:30.459Z,7.90
2018-07-17T04:17:58.586Z,6.37
2018-07-17T04:20:26.702Z,5.20
2018-07-17T04:22:54.841Z,6.33
2018-07-17T04:25:22.977Z,4.70
2018-07-17T04:27:51.089Z,5.47
2018-07-17T04:30:19.753Z,6.40
2018-07-17T04:32:47.876Z,4.77
2018-07-17T04:35:15.998Z,5.73
2018-07-17T04:37:44.121Z,5.77
2018-07-17T04:40:12.245Z,5.90
2018-07-17T04:42:40.381Z,4.47
2018-07-17T04:45:08.548Z,6.63
2018-07-17T04:47:36.656Z,5.73
2018-07-17T04:50:04.795Z,5.90
2018-07-17T04:52:34.261Z,5.57
2018-07-17T04:55:02.413Z,6.27
2018-07-17T04:57:30.561Z,7.50
2018-07-17T04:59:58.721Z,5.27
2018-07-17T05:02:27.986Z,5.13
2018-07-17T05:04:56.132Z,6.23
2018-07-17T05:07:24.241Z,8.17
2018-07-17T05:09:52.367Z,6.00
2018-07-17T05:12:20.992Z,5.43
2018-07-17T05:14:49.113Z,6.40
2018-07-17T05:17:17.249Z,12.43
2018-07-17T05:19:45.392Z,6.40
2018-07-17T05:22:13.524Z,9.13
2018-07-17T05:24:41.629Z,6.27
2018-07-17T05:27:09.781Z,6.20
2018-07-17T05:29:37.897Z,5.70
2018-07-17T05:32:06.061Z,5.20
2018-07-17T05:34:34.224Z,5.90
2018-07-17T05:37:02.358Z,5.57
2018-07-17T05:39:30.487Z,8.60
2018-07-17T05:41:58.630Z,5.97
2018-07-17T05:44:26.771Z,10.23
2018-07-17T05:46:54.896Z,7.80
2018-07-17T05:49:23.033Z,8.73
2018-07-17T05:51:51.158Z,7.47
2018-07-17T05:54:19.276Z,7.83
2018-07-17T05:56:48.293Z,11.13
2018-07-17T05:59:16.398Z,8.23
2018-07-17T06:01:44.529Z,13.80
2018-07-17T06:04:13.566Z,12.77
2018-07-17T06:06:41.695Z,11.97
2018-07-17T06:09:10.704Z,12.37
2018-07-17T06:11:38.833Z,7.43
2018-07-17T06:14:06.964Z,9.07
2018-07-17T06:16:35.157Z,10.50
2018-07-17T06:19:04.069Z,9.57
2018-07-17T06:21:32.195Z,11.00
2018-07-17T06:24:00.847Z,8.17
2018-07-17T06:26:29.784Z,15.10
2018-07-17T06:28:57.915Z,13.20
2018-07-17T06:31:26.092Z,9.60
2018-07-17T06:33:54.568Z,8.60
2018-07-17T06:36:22.693Z,8.27
2018-07-17T06:38:50.886Z,7.87
2018-07-17T06:41:19.469Z,8.90
2018-07-17T06:43:47.589Z,9.63
2018-07-17T06:46:15.708Z,8.97
2018-07-17T06:48:43.830Z,7.03
2018-07-17T06:51:11.968Z,8.33
2018-07-17T06:53:40.120Z,12.73
2018-07-17T06:56:08.257Z,10.33
2018-07-17T06:58:36.377Z,9.03
2018-07-17T07:01:04.532Z,9.10
2018-07-17T07:03:33.022Z,11.90
2018-07-17T07:06:02.474Z,9.97
2018-07-17T07:08:30.585Z,7.73
2018-07-17T07:10:58.813Z,10.57
2018-07-17T07:13:26.937Z,9.97
2018-07-17T07:15:55.057Z,8.73
2018-07-17T07:18:23.200Z,7.80
2018-07-17T07:20:51.338Z,6.83
2018-07-17T07:23:19.492Z,8.37
2018-07-17T07:25:48.115Z,9.10
2018-07-17T07:28:16.240Z,11.03
2018-07-17T07:30:44.376Z,9.67
2018-07-17T07:33:12.562Z,8.03
2018-07-17T07:35:40.690Z,12.83
2018-07-17T07:38:08.825Z,9.90
2018-07-17T07:40:36.954Z,7.63
2018-07-17T07:43:05.123Z,13.13
2018-07-17T07:45:33.242Z,13.77
2018-07-17T07:48:01.864Z,10.17
2018-07-17T07:50:29.988Z,11.50
2018-07-17T07:52:58.103Z,9.67
2018-07-17T07:55:27.559Z,9.33
2018-07-17T07:57:55.708Z,12.20
2018-07-17T08:00:23.825Z,9.20
2018-07-17T08:02:52.003Z,5.83
2018-07-17T08:05:20.140Z,7.93
2018-07-17T08:07:48.340Z,11.07
2018-07-17T08:10:16.858Z,7.03
2018-07-17T08:12:44.997Z,6.73
2018-07-17T08:15:13.113Z,10.70
2018-07-17T08:17:41.386Z,11.43
2018-07-17T08:20:09.642Z,7.57
2018-07-17T08:22:37.767Z,11.43
2018-07-17T08:25:05.904Z,5.43
2018-07-17T08:27:34.023Z,7.03
2018-07-17T08:30:02.150Z,5.93
2018-07-17T08:32:31.137Z,6.93
2018-07-17T08:34:59.271Z,4.47
2018-07-17T08:37:27.384Z,6.33
2018-07-17T08:39:55.861Z,7.00
2018-07-17T08:42:23.976Z,5.00
2018-07-17T08:44:52.096Z,5.03
2018-07-17T08:47:20.230Z,8.93
2018-07-17T08:49:48.377Z,8.23
2018-07-17T08:52:16.502Z,7.50
2018-07-17T08:54:45.201Z,6.53
2018-07-17T08:57:13.276Z,5.50
2018-07-17T08:59:41.381Z,5.97
2018-07-17T09:02:09.517Z,4.07
2018-07-17T09:04:37.642Z,5.33
2018-07-17T09:07:06.108Z,6.53
2018-07-17T09:09:34.394Z,11.07
2018-07-17T09:12:02.522Z,8.17
2018-07-17T09:14:30.643Z,5.20
2018-07-17T09:16:59.497Z,6.60
2018-07-17T09:19:27.616Z,7.57
2018-07-17T09:21:55.726Z,6.03
2018-07-17T09:24:23.853Z,9.40
2018-07-17T09:26:52.974Z,5.10
2018-07-17T09:29:21.100Z,5.67
2018-07-17T09:31:49.233Z,5.40
2018-07-17T09:34:17.356Z,4.83
2018-07-17T09:36:45.479Z,5.73
2018-07-17T09:39:14.201Z,6.13
2018-07-17T09:41:42.332Z,5.23
2018-07-17T09:44:10.448Z,6.13
2018-07-17T09:46:38.591Z,4.27
2018-07-17T09:49:06.716Z,5.23
2018-07-17T09:51:35.568Z,8.50
2018-07-17T09:54:03.738Z,5.77
2018-07-17T09:56:32.654Z,5.40
2018-07-17T09:59:00.786Z,7.13
2018-07-17T10:01:34.665Z,8.03
2018-07-17T10:04:02.816Z,2.80
2018-07-17T10:06:30.938Z,3.43
2018-07-17T10:08:59.081Z,3.97
2018-07-17T10:11:27.289Z,7.00
2018-07-17T10:13:55.409Z,5.33
2018-07-17T10:16:24.542Z,4.20
2018-07-17T10:18:53.684Z,4.10
2018-07-17T10:21:21.810Z,2.23
2018-07-17T10:23:49.928Z,6.27
2018-07-17T10:26:18.068Z,2.90
2018-07-17T10:28:46.213Z,4.67
2018-07-17T10:31:14.335Z,3.67
2018-07-17T10:33:42.482Z,2.80
2018-07-17T10:36:10.613Z,3.63
2018-07-17T10:38:38.771Z,1.50
2018-07-17T10:41:06.883Z,2.47
2018-07-17T10:43:35.085Z,4.00
2018-07-17T10:46:03.435Z,4.13
2018-07-17T10:48:31.569Z,3.70
2018-07-17T10:50:59.709Z,3.70
2018-07-17T10:53:27.840Z,3.13
2018-07-17T10:55:55.970Z,1.83
2018-07-17T10:58:24.116Z,1.80
2018-07-17T11:00:52.296Z,2.87
2018-07-17T11:03:20.394Z,6.37
2018-07-17T11:05:48.601Z,5.37
2018-07-17T11:08:16.560Z,1.93
2018-07-17T11:10:44.617Z,1.90
2018-07-17T11:13:13.180Z,2.17
2018-07-17T11:15:41.320Z,5.33
2018-07-17T11:18:09.204Z,3.30
2018-07-17T11:20:37.341Z,2.83
2018-07-17T11:23:05.494Z,2.97
2018-07-17T11:25:33.747Z,2.97
2018-07-17T11:30:35.902Z,2.87
2018-07-17T11:33:04.033Z,4.30
2018-07-17T11:35:32.278Z,4.60
2018-07-17T11:38:00.416Z,2.30
2018-07-17T11:40:28.552Z,5.10
2018-07-17T11:42:56.671Z,4.90
2018-07-17T11:45:24.892Z,3.77
2018-07-17T11:47:53.063Z,3.37
2018-07-17T11:50:21.133Z,3.03
2018-07-17T11:52:49.750Z,2.90
2018-07-17T11:55:17.632Z,2.13
2018-07-17T11:57:45.757Z,1.73
2018-07-17T12:00:13.906Z,2.20
2018-07-17T12:02:41.792Z,2.40
2018-07-17T12:05:09.921Z,4.03
2018-07-17T12:07:38.064Z,3.10
2018-07-17T12:10:07.194Z,3.20
2018-07-17T12:12:35.377Z,2.27
2018-07-17T12:15:04.081Z,2.23
2018-07-17T12:17:32.256Z,4.20
2018-07-17T12:20:00.465Z,3.23
2018-07-17T12:22:28.500Z,1.70
2018-07-17T12:24:56.616Z,3.27
2018-07-17T12:27:24.735Z,2.63
2018-07-17T12:29:54.475Z,2.03
2018-07-17T12:32:22.585Z,1.67
2018-07-17T12:34:50.707Z,3.40
2018-07-17T12:37:19.324Z,2.13
2018-07-17T12:39:47.458Z,2.47
2018-07-17T12:42:15.665Z,3.07
2018-07-17T12:44:43.800Z,4.10
2018-07-17T12:47:11.944Z,3.17
2018-07-17T12:49:40.067Z,2.80
2018-07-17T12:52:08.234Z,3.33
2018-07-17T12:54:36.354Z,2.33
2018-07-17T12:57:04.522Z,2.23
2018-07-17T12:59:33.679Z,2.40
2018-07-17T13:02:01.818Z,4.07
2018-07-17T13:04:29.937Z,2.30
2018-07-17T13:07:01.901Z,2.80
2018-07-17T13:09:30.058Z,4.67
2018-07-17T13:11:59.185Z,3.53
2018-07-17T13:14:27.330Z,4.00
2018-07-17T13:16:56.348Z,3.80
2018-07-17T13:19:24.478Z,3.83
2018-07-17T13:21:53.266Z,2.23
2018-07-17T13:24:21.433Z,6.03
2018-07-17T13:26:49.575Z,3.50
2018-07-17T13:29:17.719Z,2.63
2018-07-17T13:31:45.845Z,3.47
2018-07-17T13:34:16.009Z,4.63
2018-07-17T13:36:44.138Z,5.07
2018-07-17T13:39:12.994Z,5.43
2018-07-17T13:41:41.933Z,2.87
2018-07-17T13:44:10.057Z,3.33
2018-07-17T13:46:39.174Z,2.40
2018-07-17T13:49:07.338Z,4.17
2018-07-17T13:51:36.256Z,4.00
2018-07-17T13:54:04.412Z,2.97
2018-07-17T13:56:32.557Z,3.23
2018-07-17T13:59:00.669Z,2.47
2018-07-17T14:01:28.810Z,5.07
2018-07-17T14:03:56.961Z,2.57
2018-07-17T14:06:25.080Z,1.93
2018-07-17T14:08:53.206Z,4.87
2018-07-17T14:11:21.341Z,4.73
2018-07-17T14:13:49.466Z,3.60
2018-07-17T14:16:17.581Z,4.03
2018-07-17T14:18:56.661Z,3.37
2018-07-17T14:21:24.781Z,2.53
2018-07-17T14:23:52.915Z,4.13
2018-07-17T14:26:21.131Z,5.40
2018-07-17T14:28:49.236Z,2.33
2018-07-17T14:31:17.364Z,3.37
2018-07-17T14:33:46.301Z,3.13
2018-07-17T14:36:14.434Z,5.17
2018-07-17T14:38:42.545Z,3.30
2018-07-17T14:41:11.032Z,3.97
2018-07-17T14:43:39.159Z,1.97
2018-07-17T14:46:07.284Z,3.13
2018-07-17T14:48:38.181Z,2.47
2018-07-17T14:51:08.313Z,3.77
2018-07-17T14:53:36.866Z,2.90
2018-07-17T14:56:05.052Z,4.83
2018-07-17T14:58:33.172Z,2.20
2018-07-17T15:01:01.446Z,1.60
2018-07-17T15:03:29.565Z,2.83
2018-07-17T15:05:57.691Z,4.10
2018-07-17T15:08:26.370Z,9.37
2018-07-17T15:10:54.483Z,2.90
2018-07-17T15:13:22.619Z,4.30
2018-07-17T15:15:50.848Z,2.60
2018-07-17T15:18:18.890Z,2.73
2018-07-17T15:20:47.553Z,12.47
2018-07-17T15:23:15.785Z,2.67
2018-07-17T15:25:44.037Z,1.70
2018-07-17T15:28:12.228Z,2.73
2018-07-17T15:30:40.301Z,2.47
2018-07-17T15:33:09.867Z,1.93
2018-07-17T15:35:38.006Z,2.23
2018-07-17T15:38:06.125Z,8.57
2018-07-17T15:40:34.260Z,4.00
2018-07-17T15:43:02.399Z,5.47
2018-07-17T15:45:30.580Z,1.67
2018-07-17T15:47:58.655Z,4.30
2018-07-17T15:50:27.307Z,7.43
2018-07-17T15:52:55.432Z,2.73
2018-07-17T15:55:23.545Z,7.63
2018-07-17T15:57:51.743Z,3.53
2018-07-17T16:00:19.898Z,3.53
2018-07-17T16:02:48.037Z,4.40
2018-07-17T16:05:16.171Z,2.37
2018-07-17T16:07:44.304Z,2.70
2018-07-17T16:10:12.420Z,2.93
2018-07-17T16:12:40.654Z,6.53
2018-07-17T16:15:08.850Z,2.50
2018-07-17T16:17:37.004Z,4.07
2018-07-17T16:20:05.461Z,2.23
2018-07-17T16:22:34.454Z,2.27
2018-07-17T16:25:02.589Z,3.10
2018-07-17T16:27:30.777Z,4.20
2018-07-17T16:29:58.914Z,2.90
2018-07-17T16:32:27.067Z,4.60
2018-07-17T16:34:55.277Z,1.93
2018-07-17T16:37:23.409Z,5.07
2018-07-17T16:39:51.550Z,5.37
2018-07-17T16:42:19.732Z,2.13
2018-07-17T16:44:47.796Z,2.37
2018-07-17T16:47:15.906Z,4.93
2018-07-17T16:49:44.143Z,3.07
2018-07-17T16:52:12.165Z,2.17
2018-07-17T16:54:40.288Z,2.90
2018-07-17T16:57:08.520Z,2.37
2018-07-17T16:59:36.633Z,2.23
2018-07-17T17:02:04.769Z,3.07
2018-07-17T17:04:33.613Z,2.90
2018-07-17T17:07:01.774Z,2.20
2018-07-17T17:09:29.883Z,4.03
2018-07-17T17:11:58.021Z,4.17
2018-07-17T17:14:26.151Z,3.37
2018-07-17T17:16:54.272Z,1.87
2018-07-17T17:19:22.905Z,1.60
2018-07-17T17:21:51.060Z,2.53
2018-07-17T17:24:19.908Z,2.33
2018-07-17T17:26:47.932Z,3.80
2018-07-17T17:29:16.081Z,1.67
2018-07-17T17:31:44.187Z,2.33
2018-07-17T17:34:12.321Z,1.50
2018-07-17T17:36:40.460Z,1.40
2018-07-17T17:39:09.762Z,3.43
2018-07-17T17:41:38.647Z,2.10
2018-07-17T17:44:07.492Z,2.10
2018-07-17T17:46:35.749Z,2.20
2018-07-17T17:49:03.870Z,1.73
2018-07-17T17:51:32.731Z,1.70
2018-07-17T17:54:00.985Z,2.03
2018-07-17T17:56:29.128Z,1.37
2018-07-17T17:58:57.266Z,3.03
2018-07-17T18:01:25.401Z,2.80
2018-07-17T18:03:53.587Z,1.33
2018-07-17T18:06:21.735Z,4.63
2018-07-17T18:08:49.923Z,3.97
2018-07-17T18:11:18.043Z,1.40
2018-07-17T18:13:46.171Z,1.63
2018-07-17T18:16:14.304Z,1.40
2018-07-17T18:18:42.418Z,2.30
2018-07-17T18:21:10.529Z,2.43
2018-07-17T18:23:39.362Z,2.63
2018-07-17T18:26:08.356Z,2.13
2018-07-17T18:28:36.483Z,2.20
2018-07-17T18:31:04.629Z,1.30
2018-07-17T18:33:32.772Z,1.80
2018-07-17T18:36:01.561Z,3.00
2018-07-17T18:38:29.717Z,3.00
2018-07-17T18:40:57.842Z,3.63
2018-07-17T18:43:26.525Z,1.70
2018-07-17T18:45:54.692Z,2.27
2018-07-17T18:48:22.815Z,2.10
2018-07-17T18:50:50.929Z,2.03
2018-07-17T18:53:19.087Z,13.47
2018-07-17T18:55:47.211Z,5.57
2018-07-17T18:58:15.324Z,8.90
2018-07-17T19:00:43.546Z,3.50
2018-07-17T19:03:11.679Z,8.03
2018-07-17T19:05:39.831Z,5.27
2018-07-17T19:08:08.306Z,2.97
2018-07-17T19:10:36.440Z,3.10
2018-07-17T19:13:04.564Z,3.70
2018-07-17T19:15:32.698Z,3.30
2018-07-17T19:18:00.829Z,2.37
2018-07-17T19:20:28.950Z,2.77
2018-07-17T19:22:57.200Z,2.53
2018-07-17T19:25:26.312Z,4.17
2018-07-17T19:27:55.302Z,3.53
2018-07-17T19:30:23.443Z,5.10
2018-07-17T19:32:51.564Z,7.80
2018-07-17T19:35:19.490Z,7.57
2018-07-17T19:37:47.608Z,7.87
2018-07-17T19:40:15.726Z,10.73
2018-07-17T19:42:43.862Z,13.97
2018-07-17T19:45:11.986Z,14.30
2018-07-17T19:47:40.136Z,12.27
2018-07-17T19:50:09.119Z,8.80
2018-07-17T19:52:37.339Z,3.97
2018-07-17T19:55:05.833Z,4.37
2018-07-17T19:57:34.022Z,7.70
2018-07-17T20:00:02.150Z,3.50
2018-07-17T20:02:30.272Z,5.47
2018-07-17T20:04:58.405Z,4.93
2018-07-17T20:07:26.908Z,4.93
2018-07-17T20:09:55.108Z,1.80
2018-07-17T20:12:23.266Z,5.60
2018-07-17T20:14:51.422Z,2.57
2018-07-17T20:17:19.572Z,2.77
2018-07-17T20:19:47.846Z,4.03
2018-07-17T20:22:15.974Z,3.67
2018-07-17T20:24:44.121Z,2.80
2018-07-17T20:27:12.419Z,2.67
2018-07-17T20:29:42.006Z,3.23
2018-07-17T20:32:10.470Z,2.37
2018-07-17T20:34:38.629Z,3.47
2018-07-17T20:37:06.892Z,4.00
2018-07-17T20:39:35.042Z,2.43
2018-07-17T20:42:03.183Z,5.43
2018-07-17T20:44:31.380Z,1.83
2018-07-17T20:46:59.515Z,2.27
2018-07-17T20:49:27.628Z,1.50
2018-07-17T20:51:55.828Z,1.90
2018-07-17T20:54:23.992Z,1.90
2018-07-17T20:56:52.213Z,2.03
2018-07-17T20:59:20.368Z,5.40
2018-07-17T21:01:49.513Z,1.57
2018-07-17T21:04:17.653Z,1.67
2018-07-17T21:06:45.823Z,2.60
2018-07-17T21:09:13.976Z,1.83
2018-07-17T21:11:42.104Z,1.90
2018-07-17T21:14:10.325Z,3.30
2018-07-17T21:16:38.487Z,1.43
2018-07-17T21:19:06.621Z,1.53
2018-07-17T21:21:34.589Z,2.07
2018-07-17T21:24:02.717Z,1.90
2018-07-17T21:26:30.897Z,1.93
2018-07-17T21:28:59.045Z,3.13
2018-07-17T21:31:27.305Z,1.83
2018-07-17T21:33:55.425Z,1.57
2018-07-17T21:36:23.972Z,2.10
2018-07-17T21:38:52.308Z,2.90
2018-07-17T21:41:20.464Z,2.83
2018-07-17T21:43:48.621Z,2.03
2018-07-17T21:46:16.874Z,2.27
2018-07-17T21:48:49.384Z,2.63
2018-07-17T21:51:17.531Z,3.17
2018-07-17T21:53:45.711Z,2.20
2018-07-17T21:56:13.918Z,1.70
2018-07-17T21:58:42.068Z,1.57
2018-07-17T22:01:10.220Z,1.80
2018-07-17T22:03:38.347Z,1.83
2018-07-17T22:06:06.471Z,2.23
2018-07-17T22:08:34.601Z,2.00
2018-07-17T22:11:02.760Z,3.17
2018-07-17T22:13:30.896Z,1.77
2018-07-17T22:15:59.047Z,2.80
2018-07-17T22:18:27.246Z,1.83
2018-07-17T22:20:55.381Z,2.27
2018-07-17T22:23:23.505Z,3.23
2018-07-17T22:25:51.660Z,1.93
2018-07-17T22:28:19.793Z,2.80
2018-07-17T22:30:47.930Z,1.70
2018-07-17T22:33:16.533Z,1.60
2018-07-17T22:35:44.741Z,1.37
2018-07-17T22:38:12.870Z,1.77
2018-07-17T22:40:41.040Z,3.10
2018-07-17T22:43:09.171Z,1.57
2018-07-17T22:45:37.375Z,1.90
2018-07-17T22:48:05.530Z,1.80
2018-07-17T22:50:33.717Z,1.97
2018-07-17T22:53:01.858Z,2.97
2018-07-17T22:55:30.004Z,2.50
2018-07-17T22:57:58.156Z,2.03
2018-07-17T23:00:26.270Z,2.53
2018-07-17T23:02:54.491Z,2.03
2018-07-17T23:05:22.630Z,2.00
2018-07-17T23:07:50.800Z,2.07
2018-07-17T23:10:19.603Z,4.40
2018-07-17T23:12:47.734Z,5.23
2018-07-17T23:15:16.917Z,2.23
2018-07-17T23:17:45.061Z,2.17
2018-07-17T23:20:13.175Z,6.23
2018-07-17T23:22:55.533Z,3.20
2018-07-17T23:25:24.687Z,2.97
2018-07-17T23:27:52.999Z,1.90
2018-07-17T23:30:21.149Z,2.97
2018-07-17T23:32:50.393Z,4.37
2018-07-17T23:35:20.598Z,2.53
2018-07-17T23:37:48.872Z,3.53
2018-07-17T23:40:17.005Z,4.33
2018-07-17T23:42:45.229Z,1.67
2018-07-17T23:45:14.070Z,2.43
2018-07-17T23:47:42.199Z,3.93
2018-07-17T23:50:10.344Z,3.10
2018-07-17T23:52:38.464Z,2.93
2018-07-17T23:55:06.625Z,5.90
2018-07-17T23:57:34.793Z,3.83
